KGAG/GAG METAR and TAF weather

Enter ICAO airport designator
Station Type Date Time Source
KGAG METAR 2019/06/18 16:53 UTC NOAA

KGAG 181653Z AUTO 21011KT 10SM CLR 29/15 A2994 RMK AO2 SLP112 T02890150 $


Station Type Date Time Source
KGAG Decoded METAR 2019/06/18 16:53 UTC NOAA

GAGE AIRPORT, OK, United States (KGAG) 36-18N 99-46W 668M
Jun 18, 2019 - 12:53 PM EDT / 2019.06.18 1653 UTC
Wind: from the SSW (210 degrees) at 13 MPH (11 KT):0
Visibility: 10 mile(s):0
Sky conditions: clear
Temperature: 84.0 F (28.9 C)
Dew Point: 59.0 F (15.0 C)
Relative Humidity: 42%
Pressure (altimeter): 29.94 in. Hg (1013 hPa)
ob: KGAG 181653Z AUTO 21011KT 10SM CLR 29/15 A2994 RMK AO2 SLP112 T02890150
cycle: 17

Station Type Date Time Source
KGAG TAF 2018/03/21 06:22 UTC NOAA

TAF KGAG 210520Z 2106/2206 VRB04KT P6SM SCT250
FM211300 16008KT P6SM SCT250
FM211800 18012G22KT P6SM BKN250

Example: see airport list